Time;durP1;ratioP1;P1;durP2;ratioP2;P2;SDS_P1;SDS_P2;PMS_P1;PMS_P2;Temp;Humidity;BMP_temperature;BMP_pressure;BME280_temperature;BME280_humidity;BME280_pressure;Samples;Min_cycle;Max_cycle;Signal;HPM_P1;HPM_P2
2022/09/02 00:01:18;;;;;;;2.03;1.93;;;21.30;49.60;;;;;;5024120;28;20442;-84
2022/09/02 00:03:45;;;;;;;1.30;1.20;;;21.40;49.70;;;;;;5024475;28;20461;-83
2022/09/02 00:06:13;;;;;;;4.30;1.70;;;21.40;49.70;;;;;;5039901;28;20940;-83
2022/09/02 00:08:41;;;;;;;2.50;1.50;;;21.50;50.00;;;;;;5025342;28;20450;-83
2022/09/02 00:11:13;;;;;;;1.43;1.33;;;21.30;50.10;;;;;;5030518;28;20450;-83
2022/09/02 00:13:40;;;;;;;1.90;1.10;;;21.30;50.30;;;;;;5020586;28;20442;-84
2022/09/02 00:16:09;;;;;;;2.00;1.10;;;21.30;50.50;;;;;;5020057;28;20446;-82
2022/09/02 00:18:37;;;;;;;1.97;1.20;;;21.30;50.20;;;;;;5021071;28;20474;-85
2022/09/02 00:21:04;;;;;;;3.67;1.40;;;21.20;50.30;;;;;;5035900;28;20453;-83
2022/09/02 00:23:30;;;;;;;1.47;1.20;;;21.20;50.20;;;;;;5024048;28;20947;-83
2022/09/02 00:25:58;;;;;;;1.60;1.50;;;21.20;50.50;;;;;;5023024;28;20442;-83
2022/09/02 00:28:24;;;;;;;2.97;1.30;;;21.10;50.60;;;;;;5036937;28;20573;-83
2022/09/02 00:30:51;;;;;;;1.50;1.40;;;21.10;50.50;;;;;;5021003;28;20951;-81
2022/09/02 00:33:19;;;;;;;1.57;1.30;;;21.10;51.00;;;;;;5020776;28;20450;-85
2022/09/02 00:35:46;;;;;;;1.30;1.20;;;21.10;50.60;;;;;;5007206;28;20465;-84
2022/09/02 00:38:13;;;;;;;1.50;1.40;;;21.00;50.50;;;;;;5019434;28;20484;-83
2022/09/02 00:40:45;;;;;;;2.30;1.50;;;20.80;50.80;;;;;;5019567;28;20450;-83
2022/09/02 00:43:24;;;;;;;3.50;1.80;;;20.70;51.00;;;;;;5021323;28;20513;-83
2022/09/02 00:45:52;;;;;;;1.70;1.60;;;20.90;51.10;;;;;;5025979;28;20473;-83
2022/09/02 00:48:19;;;;;;;1.57;1.33;;;20.90;51.10;;;;;;5020699;28;21078;-82
2022/09/02 00:50:46;;;;;;;4.53;1.30;;;21.00;50.90;;;;;;5012310;28;20486;-85
2022/09/02 00:53:13;;;;;;;1.50;1.40;;;20.90;51.10;;;;;;5022154;28;20538;-83
2022/09/02 00:55:45;;;;;;;2.63;1.53;;;20.90;51.10;;;;;;5023563;28;20458;-85
2022/09/02 00:58:25;;;;;;;2.00;1.27;;;20.80;51.10;;;;;;5038350;28;20477;-84
2022/09/02 01:00:56;;;;;;;1.37;1.27;;;20.70;51.20;;;;;;5023130;28;20453;-81
2022/09/02 01:03:25;;;;;;;1.93;1.20;;;20.80;51.50;;;;;;5025689;28;20789;-81
2022/09/02 01:05:54;;;;;;;1.30;1.20;;;20.80;51.30;;;;;;5022457;28;20448;-84
2022/09/02 01:08:24;;;;;;;1.50;1.40;;;20.90;51.10;;;;;;5026115;28;20970;-83
2022/09/02 01:10:54;;;;;;;1.93;1.40;;;20.70;51.20;;;;;;5026577;28;20517;-82
2022/09/02 01:13:27;;;;;;;1.63;1.53;;;20.80;51.20;;;;;;5030581;28;20498;-82
2022/09/02 01:16:14;;;;;;;1.63;1.53;;;20.80;51.30;;;;;;5032184;28;20534;-82
2022/09/02 01:18:47;;;;;;;1.80;1.70;;;20.90;51.10;;;;;;5027067;28;20914;-84
2022/09/02 01:21:16;;;;;;;1.87;1.50;;;20.70;51.50;;;;;;5027821;28;20434;-83
2022/09/02 01:23:44;;;;;;;1.70;1.60;;;20.80;51.30;;;;;;5033114;28;20513;-84
2022/09/02 01:26:11;;;;;;;2.43;1.20;;;20.80;51.50;;;;;;5032164;28;20501;-84
2022/09/02 01:28:37;;;;;;;1.60;1.50;;;20.60;51.80;;;;;;5031208;28;20481;-81
2022/09/02 01:31:05;;;;;;;1.20;1.10;;;20.50;52.20;;;;;;5028643;28;20465;-83
2022/09/02 01:33:32;;;;;;;3.30;1.27;;;20.40;52.50;;;;;;5025139;28;20446;-83
2022/09/02 01:36:00;;;;;;;1.47;1.37;;;20.50;52.40;;;;;;5028737;28;20446;-84
2022/09/02 01:38:27;;;;;;;1.90;1.70;;;20.50;52.60;;;;;;5020118;28;20474;-84
2022/09/02 01:40:54;;;;;;;2.73;1.57;;;20.50;52.70;;;;;;5026243;28;20458;-84
2022/09/02 01:43:24;;;;;;;4.30;1.57;;;20.50;53.10;;;;;;5040753;28;20454;-84
2022/09/02 01:45:54;;;;;;;1.33;1.23;;;20.50;52.90;;;;;;5024464;28;20473;-83
2022/09/02 01:48:21;;;;;;;5.67;1.80;;;20.60;52.90;;;;;;5024607;28;20585;-82
2022/09/02 01:50:53;;;;;;;2.73;2.53;;;20.70;53.10;;;;;;5023985;28;20450;-84
2022/09/02 01:53:19;;;;;;;1.53;1.43;;;20.70;53.00;;;;;;5015685;28;20445;-82
2022/09/02 01:55:46;;;;;;;1.50;1.40;;;20.70;53.10;;;;;;5022938;28;20450;-83
2022/09/02 01:58:13;;;;;;;1.50;1.40;;;20.60;53.10;;;;;;5023238;28;21030;-83
2022/09/02 02:00:40;;;;;;;1.20;1.17;;;20.60;53.00;;;;;;5044456;28;20704;-83
2022/09/02 02:03:07;;;;;;;1.73;1.40;;;20.40;53.00;;;;;;5034246;28;20462;-84
2022/09/02 02:05:34;;;;;;;1.50;1.40;;;20.30;53.50;;;;;;5025485;28;20454;-83
2022/09/02 02:08:01;;;;;;;2.63;1.60;;;20.30;53.50;;;;;;5019860;28;20498;-83
2022/09/02 02:10:27;;;;;;;1.70;1.37;;;20.20;53.70;;;;;;5021933;28;20461;-83
2022/09/02 02:12:54;;;;;;;1.30;1.20;;;20.10;53.90;;;;;;5022138;28;20470;-84
2022/09/02 02:15:22;;;;;;;2.00;1.10;;;20.10;54.10;;;;;;5015046;28;20446;-82
2022/09/02 02:17:48;;;;;;;1.40;1.30;;;20.10;54.00;;;;;;5019764;28;20497;-82
2022/09/02 02:20:16;;;;;;;1.60;1.50;;;20.10;54.30;;;;;;5020897;28;20496;-82
2022/09/02 02:22:43;;;;;;;1.73;1.63;;;20.00;54.40;;;;;;5015146;28;20541;-82
2022/09/02 02:25:13;;;;;;;1.50;1.40;;;20.20;54.10;;;;;;5021027;28;20446;-83
2022/09/02 02:27:41;;;;;;;1.73;1.43;;;20.10;54.10;;;;;;5021546;28;20965;-84
2022/09/02 02:30:10;;;;;;;2.27;1.60;;;20.20;54.20;;;;;;5037360;28;20434;-83
2022/09/02 02:32:36;;;;;;;4.23;1.90;;;20.30;54.00;;;;;;5020233;28;20462;-82
2022/09/02 02:35:04;;;;;;;1.40;1.30;;;20.20;53.90;;;;;;5021887;28;20446;-84
2022/09/02 02:37:31;;;;;;;1.83;1.40;;;20.10;54.30;;;;;;5022014;28;20478;-85
2022/09/02 02:39:58;;;;;;;2.87;1.40;;;20.20;54.40;;;;;;5022814;28;20461;-84
2022/09/02 02:42:24;;;;;;;2.30;1.13;;;20.30;54.30;;;;;;5022970;28;20469;-86
2022/09/02 02:44:51;;;;;;;2.20;1.47;;;20.20;54.60;;;;;;5024171;28;20948;-83
2022/09/02 02:47:18;;;;;;;3.23;1.40;;;20.10;54.70;;;;;;5016063;28;20479;-84
2022/09/02 02:49:44;;;;;;;1.80;1.60;;;20.10;54.90;;;;;;5024131;28;20500;-84
2022/09/02 02:52:12;;;;;;;1.80;1.30;;;20.40;54.80;;;;;;5025853;28;20458;-85
2022/09/02 02:54:39;;;;;;;1.53;1.43;;;20.40;54.80;;;;;;5024517;28;20438;-82
2022/09/02 02:57:07;;;;;;;1.50;1.30;;;20.30;54.90;;;;;;5025375;28;20536;-83
2022/09/02 02:59:35;;;;;;;1.93;1.70;;;20.10;55.10;;;;;;5024199;28;20465;-83
2022/09/02 03:02:03;;;;;;;2.23;1.97;;;20.10;55.50;;;;;;5020901;28;20487;-84
2022/09/02 03:04:30;;;;;;;4.00;2.43;;;20.20;55.40;;;;;;5019437;28;20451;-83
2022/09/02 03:06:56;;;;;;;1.63;1.53;;;20.10;55.50;;;;;;5019986;28;20484;-82
2022/09/02 03:09:23;;;;;;;1.37;1.30;;;20.30;55.30;;;;;;5020058;28;20455;-80
2022/09/02 03:11:50;;;;;;;2.10;1.30;;;20.30;55.30;;;;;;5035985;28;20458;-83
2022/09/02 03:14:17;;;;;;;1.50;1.40;;;20.20;55.20;;;;;;5018963;28;20454;-82
2022/09/02 03:16:44;;;;;;;1.60;1.50;;;20.10;55.40;;;;;;5019630;28;20446;-83
2022/09/02 03:19:12;;;;;;;1.73;1.60;;;20.10;55.50;;;;;;5020147;28;21011;-84
2022/09/02 03:21:40;;;;;;;2.60;1.33;;;19.90;56.00;;;;;;5020357;28;20995;-81
2022/09/02 03:24:09;;;;;;;1.40;1.30;;;20.00;56.40;;;;;;5019766;28;20446;-83
2022/09/02 03:26:36;;;;;;;2.63;1.40;;;20.00;56.10;;;;;;5018974;28;20838;-82
2022/09/02 03:29:03;;;;;;;2.03;1.80;;;20.10;56.00;;;;;;5020543;28;20498;-83
2022/09/02 03:31:29;;;;;;;5.90;1.80;;;19.90;56.30;;;;;;5020252;28;20461;-82
2022/09/02 03:33:56;;;;;;;2.80;1.40;;;20.00;56.20;;;;;;5021041;28;20884;-83
2022/09/02 03:36:30;;;;;;;1.63;1.30;;;19.90;56.60;;;;;;5024550;28;20465;-81
2022/09/02 03:38:57;;;;;;;3.23;1.40;;;19.90;56.60;;;;;;5020221;28;20470;-83
2022/09/02 03:41:24;;;;;;;3.50;1.60;;;19.80;56.30;;;;;;5020130;28;20465;-82
2022/09/02 03:43:50;;;;;;;1.73;1.63;;;19.60;56.50;;;;;;5019152;28;20462;-82
2022/09/02 03:46:17;;;;;;;2.97;1.23;;;19.60;56.60;;;;;;5018073;28;20458;-81
2022/09/02 03:48:44;;;;;;;1.67;1.50;;;19.60;56.70;;;;;;5017805;28;20515;-83
2022/09/02 03:51:12;;;;;;;3.20;1.80;;;19.60;56.80;;;;;;5034474;28;20442;-82
2022/09/02 03:53:38;;;;;;;1.53;1.37;;;19.70;56.60;;;;;;5033662;28;20454;-83
2022/09/02 03:56:07;;;;;;;1.40;1.30;;;19.70;56.80;;;;;;5018485;28;20459;-82
2022/09/02 03:58:35;;;;;;;1.67;1.57;;;19.90;56.60;;;;;;5014705;28;20532;-82
2022/09/02 04:01:01;;;;;;;2.20;1.40;;;19.80;56.50;;;;;;5018585;28;20446;-82
2022/09/02 04:03:28;;;;;;;2.00;1.23;;;19.90;56.70;;;;;;5011156;28;20462;-82
2022/09/02 04:05:55;;;;;;;1.80;1.33;;;19.80;56.80;;;;;;5009415;28;20461;-83
2022/09/02 04:08:22;;;;;;;2.97;1.73;;;19.90;56.90;;;;;;5020288;28;20516;-84
2022/09/02 04:10:49;;;;;;;1.57;1.47;;;20.00;56.80;;;;;;5024373;28;20454;-83
2022/09/02 04:13:16;;;;;;;3.40;1.63;;;20.10;56.90;;;;;;5024152;28;20533;-83
2022/09/02 04:15:46;;;;;;;3.40;2.20;;;20.20;56.90;;;;;;5021092;28;20512;-82
2022/09/02 04:18:16;;;;;;;2.10;1.47;;;20.10;56.40;;;;;;5035475;28;20545;-83
2022/09/02 04:20:43;;;;;;;2.30;1.60;;;20.00;56.60;;;;;;5023475;28;20457;-83
2022/09/02 04:23:10;;;;;;;2.17;1.60;;;20.00;56.10;;;;;;5040346;28;20449;-83
2022/09/02 04:25:41;;;;;;;3.33;2.07;;;20.00;56.10;;;;;;5021914;28;20450;-82
2022/09/02 04:28:08;;;;;;;2.97;1.80;;;19.80;56.60;;;;;;5021522;28;20470;-82
2022/09/02 04:30:38;;;;;;;2.87;1.50;;;19.60;57.00;;;;;;5034608;28;20446;-83
2022/09/02 04:33:05;;;;;;;2.70;1.80;;;19.60;57.00;;;;;;5018699;28;20481;-82
2022/09/02 04:35:34;;;;;;;2.37;1.67;;;19.70;56.70;;;;;;5020276;28;20442;-83
2022/09/02 04:38:01;;;;;;;4.70;1.73;;;19.60;56.70;;;;;;5018705;28;20993;-82
2022/09/02 04:40:28;;;;;;;4.20;2.00;;;19.70;56.70;;;;;;5032839;28;20450;-85
2022/09/02 04:42:55;;;;;;;3.83;2.17;;;19.70;56.60;;;;;;5034971;28;20506;-81
2022/09/02 04:45:21;;;;;;;4.10;2.07;;;19.60;57.00;;;;;;5018648;28;20473;-81
2022/09/02 04:47:52;;;;;;;5.70;1.87;;;19.60;57.10;;;;;;5014139;28;20486;-83
2022/09/02 04:50:18;;;;;;;2.70;1.93;;;19.60;56.80;;;;;;5010920;28;20450;-82
2022/09/02 04:52:45;;;;;;;1.70;1.43;;;19.50;56.70;;;;;;5018806;28;20442;-81
2022/09/02 04:55:12;;;;;;;2.17;1.60;;;19.40;56.70;;;;;;5018776;28;20458;-82
2022/09/02 04:57:39;;;;;;;2.40;1.77;;;19.40;56.90;;;;;;5011709;28;20502;-81
2022/09/02 05:00:07;;;;;;;1.83;1.40;;;19.30;56.80;;;;;;5019117;28;20446;-82
2022/09/02 05:02:34;;;;;;;2.40;1.70;;;19.30;57.20;;;;;;5018582;28;20492;-80
2022/09/02 05:05:01;;;;;;;5.10;2.00;;;19.40;57.30;;;;;;5009629;28;20476;-80
2022/09/02 05:07:27;;;;;;;4.27;1.90;;;19.30;57.20;;;;;;5035764;28;20466;-81
2022/09/02 05:09:57;;;;;;;4.17;2.27;;;19.40;57.20;;;;;;5018154;28;20450;-81
2022/09/02 05:12:26;;;;;;;5.83;3.23;;;19.40;57.50;;;;;;5024268;28;20445;-82
2022/09/02 05:14:55;;;;;;;3.80;2.10;;;19.40;57.60;;;;;;5022540;28;20474;-82
2022/09/02 05:17:22;;;;;;;2.90;2.00;;;19.40;57.60;;;;;;5020877;28;20476;-82
2022/09/02 05:19:49;;;;;;;6.20;1.90;;;19.50;57.30;;;;;;5028569;28;20457;-82
2022/09/02 05:22:16;;;;;;;5.13;2.10;;;19.40;56.80;;;;;;5020388;28;20465;-82
2022/09/02 05:24:43;;;;;;;2.00;1.70;;;19.30;57.40;;;;;;5035418;28;20453;-83
2022/09/02 05:27:10;;;;;;;1.77;1.67;;;19.30;57.40;;;;;;5020080;28;20462;-83
2022/09/02 05:29:37;;;;;;;2.77;1.77;;;19.40;57.10;;;;;;5019404;28;20848;-82
2022/09/02 05:32:06;;;;;;;1.67;1.57;;;19.40;57.20;;;;;;5038106;28;20446;-81
2022/09/02 05:34:35;;;;;;;3.40;1.87;;;19.50;56.90;;;;;;5023527;28;20458;-82
2022/09/02 05:37:03;;;;;;;2.60;1.70;;;19.50;57.00;;;;;;5023473;28;20470;-83
2022/09/02 05:39:31;;;;;;;2.00;1.80;;;19.50;56.90;;;;;;5039776;28;20477;-83
2022/09/02 05:41:58;;;;;;;1.90;1.23;;;19.50;56.50;;;;;;5016337;28;20454;-82
2022/09/02 05:44:24;;;;;;;2.27;2.03;;;19.50;56.70;;;;;;5041108;28;20454;-83
2022/09/02 05:46:52;;;;;;;1.93;1.83;;;19.40;57.10;;;;;;5023544;28;20450;-83
2022/09/02 05:49:20;;;;;;;1.70;1.60;;;19.60;56.90;;;;;;5020610;28;20485;-84
2022/09/02 05:51:48;;;;;;;1.50;1.40;;;19.60;56.90;;;;;;5020978;28;20450;-81
2022/09/02 05:54:23;;;;;;;2.23;1.80;;;19.60;56.90;;;;;;5020974;28;20450;-84
2022/09/02 05:56:52;;;;;;;2.57;1.50;;;19.70;56.60;;;;;;5016529;28;20457;-83
2022/09/02 05:59:21;;;;;;;2.37;1.60;;;19.70;56.50;;;;;;5022372;28;20546;-84
2022/09/02 06:01:50;;;;;;;2.30;2.10;;;19.70;56.60;;;;;;5022144;28;20497;-83
2022/09/02 06:04:17;;;;;;;1.70;1.60;;;19.80;56.20;;;;;;5038695;28;20670;-83
2022/09/02 06:06:44;;;;;;;2.40;1.57;;;19.80;56.20;;;;;;5039903;28;20454;-84
2022/09/02 06:09:14;;;;;;;2.33;1.40;;;19.90;56.70;;;;;;5024995;28;20508;-84
2022/09/02 06:11:48;;;;;;;1.73;1.60;;;21.90;55.50;;;;;;5024372;28;20537;-84
2022/09/02 06:14:16;;;;;;;1.70;1.60;;;22.80;51.20;;;;;;5025770;28;20967;-84
2022/09/02 06:16:44;;;;;;;1.97;1.77;;;22.50;51.10;;;;;;5022296;28;20442;-83
2022/09/02 06:19:11;;;;;;;2.77;1.60;;;21.80;52.10;;;;;;5025145;28;21007;-83
2022/09/02 06:21:42;;;;;;;1.60;1.50;;;22.30;53.00;;;;;;5024672;28;20570;-84
2022/09/02 06:24:10;;;;;;;3.50;2.10;;;25.10;49.30;;;;;;5025207;28;20474;-82
2022/09/02 06:26:38;;;;;;;1.40;1.30;;;27.10;45.40;;;;;;5025181;28;20454;-83
2022/09/02 06:29:06;;;;;;;4.57;1.50;;;28.20;42.90;;;;;;5028642;28;20553;-83
2022/09/02 06:31:33;;;;;;;1.57;1.47;;;28.80;41.60;;;;;;5033499;28;20461;-84
2022/09/02 06:34:00;;;;;;;1.90;1.80;;;28.50;41.00;;;;;;5036780;28;20485;-82
2022/09/02 06:36:28;;;;;;;4.73;1.57;;;28.50;41.10;;;;;;5037803;28;20442;-83
2022/09/02 06:38:57;;;;;;;2.03;1.83;;;27.80;40.70;;;;;;5060491;28;20454;-82
2022/09/02 06:41:28;;;;;;;1.73;1.63;;;25.70;43.90;;;;;;5047377;28;20462;-83
2022/09/02 06:43:58;;;;;;;3.10;1.30;;;26.00;45.00;;;;;;5054032;28;20458;-81
2022/09/02 06:46:27;;;;;;;2.70;1.60;;;27.10;43.90;;;;;;5027427;28;20461;-84
2022/09/02 06:48:54;;;;;;;1.60;1.50;;;28.30;41.60;;;;;;5024071;28;20478;-82
2022/09/02 06:51:27;;;;;;;1.67;1.50;;;27.50;41.50;;;;;;5024586;28;20516;-81
2022/09/02 06:53:55;;;;;;;1.70;1.60;;;25.90;43.00;;;;;;5023480;28;20454;-82
2022/09/02 06:56:22;;;;;;;1.47;1.37;;;23.90;46.30;;;;;;5028269;28;20464;-82
2022/09/02 06:58:49;;;;;;;1.70;1.60;;;22.80;48.60;;;;;;4996667;28;20482;-83
2022/09/02 07:01:22;;;;;;;3.17;1.60;;;22.20;50.50;;;;;;5027061;28;20443;-83
2022/09/02 07:06:37;;;;;;;3.27;1.43;;;21.80;51.30;;;;;;5027171;28;20525;-83
2022/09/02 07:09:06;;;;;;;1.77;1.30;;;22.30;52.30;;;;;;5025272;28;20478;-82
2022/09/02 07:11:33;;;;;;;2.67;1.37;;;24.60;49.50;;;;;;5029338;28;20438;-83
2022/09/02 07:14:00;;;;;;;2.10;1.87;;;24.00;47.80;;;;;;5033618;28;20447;-80
2022/09/02 07:16:29;;;;;;;1.73;1.63;;;23.10;49.20;;;;;;5031499;28;20475;-81
2022/09/02 07:18:56;;;;;;;2.20;1.60;;;22.40;50.70;;;;;;5036288;28;20469;-83
2022/09/02 07:21:23;;;;;;;1.53;1.43;;;22.10;51.60;;;;;;5038186;28;20470;-84
2022/09/02 07:23:50;;;;;;;2.53;1.60;;;21.90;52.20;;;;;;5036532;28;20446;-83
2022/09/02 07:26:17;;;;;;;2.60;2.10;;;22.40;52.70;;;;;;5036205;28;20466;-83
2022/09/02 07:28:43;;;;;;;2.60;1.73;;;24.00;51.00;;;;;;5033415;28;20482;-83
2022/09/02 07:31:12;;;;;;;1.70;1.60;;;26.00;47.20;;;;;;5026339;28;20910;-84
2022/09/02 07:33:39;;;;;;;1.70;1.60;;;25.70;46.50;;;;;;5035522;28;20518;-83
2022/09/02 07:36:09;;;;;;;2.67;2.47;;;26.30;46.10;;;;;;5032296;28;20526;-83
2022/09/02 07:38:37;;;;;;;1.63;1.50;;;25.90;45.90;;;;;;5031987;28;20578;-80
2022/09/02 07:41:04;;;;;;;2.20;2.00;;;26.10;46.10;;;;;;5033582;28;20457;-80
2022/09/02 07:43:32;;;;;;;3.97;2.03;;;27.80;44.50;;;;;;5033271;28;20518;-82
2022/09/02 07:46:00;;;;;;;1.80;1.70;;;29.40;41.80;;;;;;5033821;28;20518;-82
2022/09/02 07:48:28;;;;;;;2.10;1.90;;;30.10;39.80;;;;;;5021536;28;20474;-82
2022/09/02 07:50:56;;;;;;;2.47;1.50;;;30.80;39.50;;;;;;5047530;28;20450;-83
2022/09/02 07:53:24;;;;;;;2.70;2.00;;;32.20;37.00;;;;;;5042338;28;20450;-84
2022/09/02 07:55:53;;;;;;;2.67;1.63;;;31.80;36.70;;;;;;5026398;28;20533;-83
2022/09/02 07:58:21;;;;;;;1.87;1.30;;;31.40;37.20;;;;;;5026040;28;20466;-83
2022/09/02 08:00:48;;;;;;;2.20;1.70;;;30.00;38.60;;;;;;5025427;28;20485;-83
2022/09/02 08:03:16;;;;;;;2.43;1.80;;;28.10;40.90;;;;;;5025901;28;20990;-83
2022/09/02 08:05:45;;;;;;;2.37;2.20;;;28.50;42.10;;;;;;5024719;28;20458;-85
2022/09/02 08:08:14;;;;;;;2.97;2.10;;;29.50;40.70;;;;;;5026013;28;20466;-84
2022/09/02 08:10:42;;;;;;;2.30;1.83;;;30.20;39.50;;;;;;5024704;28;20439;-83
2022/09/02 08:13:09;;;;;;;2.20;1.90;;;29.50;39.80;;;;;;5018048;28;20455;-85
2022/09/02 08:15:38;;;;;;;1.80;1.70;;;28.30;40.80;;;;;;5022690;28;20458;-82
2022/09/02 08:18:06;;;;;;;2.93;2.00;;;27.40;43.10;;;;;;5018681;28;20466;-82
2022/09/02 08:20:33;;;;;;;2.40;2.07;;;26.80;43.60;;;;;;5014333;28;20552;-85
2022/09/02 08:23:05;;;;;;;3.53;2.07;;;26.20;44.40;;;;;;5028298;28;21134;-85
2022/09/02 08:25:39;;;;;;;1.80;1.70;;;26.10;45.10;;;;;;5025155;28;20476;-84
2022/09/02 08:28:06;;;;;;;1.57;1.47;;;26.90;44.70;;;;;;5012603;28;20490;-85
2022/09/02 08:30:34;;;;;;;1.80;1.70;;;28.00;42.90;;;;;;5010484;28;20876;-83
2022/09/02 08:33:00;;;;;;;2.30;1.50;;;28.70;41.90;;;;;;5011813;28;20462;-82
2022/09/02 08:35:27;;;;;;;2.27;2.07;;;29.90;39.90;;;;;;5012565;28;20442;-84
2022/09/02 08:37:58;;;;;;;1.73;1.63;;;30.60;38.90;;;;;;5009546;28;20493;-83
2022/09/02 08:40:33;;;;;;;2.70;2.07;;;31.00;38.30;;;;;;5010667;28;20489;-83
2022/09/02 08:43:02;;;;;;;1.60;1.43;;;31.40;37.20;;;;;;5010467;28;20490;-83
2022/09/02 08:45:35;;;;;;;2.07;1.90;;;31.10;37.00;;;;;;5028984;28;20473;-83
2022/09/02 08:48:12;;;;;;;4.13;2.00;;;31.00;37.00;;;;;;5025894;28;20569;-83
2022/09/02 08:50:43;;;;;;;2.27;2.00;;;31.40;36.70;;;;;;5009254;28;21094;-81
2022/09/02 08:53:28;;;;;;;1.97;1.53;;;31.80;36.80;;;;;;5014355;28;20446;-84
2022/09/02 08:55:57;;;;;;;2.50;2.30;;;32.10;35.90;;;;;;5027817;28;20497;-82
2022/09/02 08:58:32;;;;;;;1.93;1.83;;;31.90;35.80;;;;;;5008190;28;20480;-84
2022/09/02 09:01:12;;;;;;;2.40;1.60;;;32.60;34.70;;;;;;5011081;28;20460;-83
2022/09/02 09:04:13;;;;;;;1.67;1.50;;;31.50;35.60;;;;;;5013291;28;20572;-83
2022/09/02 09:07:14;;;;;;;1.90;1.70;;;32.10;35.50;;;;;;5012686;28;20449;-83
2022/09/02 09:10:01;;;;;;;2.20;1.70;;;31.60;35.00;;;;;;5026367;28;20520;-82
2022/09/02 09:12:43;;;;;;;3.67;1.93;;;30.30;36.80;;;;;;5025696;28;20509;-85
2022/09/02 09:15:43;;;;;;;2.13;1.80;;;31.10;36.40;;;;;;5013886;28;20446;-82
2022/09/02 09:18:15;;;;;;;2.27;2.10;;;31.50;35.40;;;;;;5021516;28;20482;-83
2022/09/02 09:20:44;;;;;;;4.33;1.60;;;32.30;35.10;;;;;;5008474;28;20466;-83
2022/09/02 09:23:32;;;;;;;1.63;1.50;;;32.50;34.80;;;;;;5009478;28;20822;-83
2022/09/02 09:26:09;;;;;;;1.90;1.50;;;31.50;35.00;;;;;;5006062;28;20461;-82
2022/09/02 09:28:39;;;;;;;2.57;1.70;;;31.20;35.50;;;;;;5009316;28;20462;-81
2022/09/02 09:31:14;;;;;;;1.67;1.57;;;30.90;35.90;;;;;;5010832;28;20462;-82
2022/09/02 09:33:57;;;;;;;1.40;1.30;;;30.90;35.70;;;;;;5013814;28;20453;-84
2022/09/02 09:36:54;;;;;;;1.60;1.50;;;30.60;35.50;;;;;;5010710;28;20461;-82
2022/09/02 09:39:25;;;;;;;2.47;2.00;;;30.30;36.10;;;;;;5010582;28;20477;-84
2022/09/02 09:41:58;;;;;;;2.87;1.40;;;30.40;36.70;;;;;;5009251;28;20506;-84
2022/09/02 09:44:45;;;;;;;2.63;1.70;;;30.40;36.90;;;;;;5013908;28;20465;-84
2022/09/02 09:47:24;;;;;;;2.27;2.13;;;30.20;37.00;;;;;;5014128;28;20509;-84
2022/09/02 09:50:07;;;;;;;3.23;2.90;;;29.70;37.10;;;;;;5030761;28;20477;-82
2022/09/02 09:52:34;;;;;;;2.40;2.00;;;29.60;38.00;;;;;;5017012;28;20438;-82
2022/09/02 09:55:10;;;;;;;1.73;1.57;;;30.60;36.00;;;;;;5031347;28;20688;-83
2022/09/02 09:57:39;;;;;;;1.83;1.73;;;30.30;35.80;;;;;;5020144;28;20494;-82
2022/09/02 10:00:26;;;;;;;2.07;1.83;;;29.70;36.50;;;;;;5026789;28;20450;-83
2022/09/02 10:02:59;;;;;;;1.50;1.40;;;30.30;35.90;;;;;;5029697;28;20454;-86
2022/09/02 10:05:28;;;;;;;2.03;1.80;;;30.30;35.30;;;;;;5029297;28;21150;-85
2022/09/02 10:08:01;;;;;;;1.50;1.40;;;30.30;35.50;;;;;;5021457;28;20470;-84
2022/09/02 10:10:30;;;;;;;1.93;1.40;;;30.30;35.20;;;;;;5012218;28;20478;-83
2022/09/02 10:13:00;;;;;;;2.07;1.37;;;30.20;35.20;;;;;;5009476;28;20476;-83
2022/09/02 10:16:00;;;;;;;1.63;1.50;;;29.40;36.10;;;;;;5011124;28;20504;-83
2022/09/02 10:18:42;;;;;;;2.00;1.60;;;29.40;36.00;;;;;;5001472;28;20577;-83
2022/09/02 10:21:53;;;;;;;1.43;1.33;;;29.60;36.40;;;;;;5009227;28;20466;-82
2022/09/02 10:24:39;;;;;;;1.50;1.40;;;30.00;35.70;;;;;;5009378;28;20450;-84
2022/09/02 10:27:10;;;;;;;1.40;1.30;;;31.60;33.10;;;;;;5005893;28;20478;-81
2022/09/02 10:30:14;;;;;;;2.83;1.80;;;31.60;32.30;;;;;;5022308;28;20505;-82
2022/09/02 10:32:55;;;;;;;1.53;1.43;;;31.20;32.80;;;;;;5002678;28;20442;-84
2022/09/02 10:35:31;;;;;;;2.30;1.60;;;31.70;31.80;;;;;;5001922;28;21257;-83
2022/09/02 10:38:02;;;;;;;2.70;1.20;;;31.10;32.30;;;;;;4966289;28;22145;-83
2022/09/02 10:40:37;;;;;;;2.30;1.40;;;30.50;32.90;;;;;;5006258;28;20529;-83
2022/09/02 10:43:07;;;;;;;3.23;1.30;;;30.70;32.80;;;;;;5013766;28;20458;-83
2022/09/02 10:45:36;;;;;;;1.40;1.30;;;30.80;32.10;;;;;;5012144;28;20465;-84
2022/09/02 10:48:40;;;;;;;1.50;1.37;;;30.50;32.20;;;;;;5014647;28;20538;-83
2022/09/02 10:51:38;;;;;;;1.90;1.70;;;30.20;32.50;;;;;;5008683;28;20499;-83
2022/09/02 10:54:26;;;;;;;1.60;1.50;;;29.40;33.50;;;;;;5003858;28;20470;-83
2022/09/02 10:57:09;;;;;;;1.73;1.10;;;29.40;33.10;;;;;;5003206;28;20458;-82
2022/09/02 10:59:58;;;;;;;2.70;1.40;;;29.30;33.10;;;;;;5005046;28;20514;-83
2022/09/02 11:02:36;;;;;;;1.50;1.40;;;28.70;33.80;;;;;;5002780;28;20488;-81
2022/09/02 11:05:28;;;;;;;1.30;1.20;;;29.10;33.30;;;;;;5003262;28;20465;-81
2022/09/02 11:08:04;;;;;;;2.20;1.50;;;28.70;33.00;;;;;;5005933;28;20470;-84
2022/09/02 11:10:40;;;;;;;1.90;1.30;;;29.30;31.90;;;;;;5005656;28;20474;-83
2022/09/02 11:13:20;;;;;;;1.37;1.27;;;29.50;32.20;;;;;;5009851;28;20959;-85
2022/09/02 11:15:56;;;;;;;1.70;1.60;;;30.10;32.10;;;;;;5003246;28;20466;-86
2022/09/02 11:18:45;;;;;;;1.67;1.50;;;30.50;31.50;;;;;;5006469;28;20493;-86
2022/09/02 11:21:34;;;;;;;2.30;1.50;;;29.90;31.60;;;;;;5015613;28;20465;-86
2022/09/02 11:24:23;;;;;;;2.90;1.30;;;29.50;32.90;;;;;;5005197;28;20482;-85
2022/09/02 11:27:07;;;;;;;1.40;1.30;;;29.90;32.20;;;;;;5001778;28;20513;-84
2022/09/02 11:30:15;;;;;;;3.33;1.60;;;30.20;31.40;;;;;;5005223;28;21183;-86
2022/09/02 11:32:49;;;;;;;1.87;1.60;;;29.90;31.30;;;;;;5004208;28;20871;-86
2022/09/02 11:35:28;;;;;;;4.80;1.70;;;29.00;32.20;;;;;;5019236;28;20458;-83
2022/09/02 11:38:03;;;;;;;1.33;1.20;;;28.90;32.80;;;;;;5025509;28;20482;-82
2022/09/02 11:40:33;;;;;;;1.67;1.27;;;29.10;32.80;;;;;;5007910;28;20452;-83
2022/09/02 11:43:32;;;;;;;1.77;1.53;;;29.60;32.50;;;;;;5009481;28;20477;-84
2022/09/02 11:46:24;;;;;;;4.70;1.43;;;29.40;32.50;;;;;;5004913;28;20512;-82
2022/09/02 11:49:14;;;;;;;1.73;1.40;;;28.80;33.60;;;;;;5011640;28;20505;-84
2022/09/02 11:51:57;;;;;;;1.80;1.17;;;29.30;33.10;;;;;;5012223;28;20516;-82
2022/09/02 11:54:28;;;;;;;1.90;1.37;;;29.60;32.20;;;;;;5010152;28;20469;-81
2022/09/02 11:57:02;;;;;;;4.53;1.90;;;29.60;32.00;;;;;;5023310;28;21784;-82
2022/09/02 11:59:51;;;;;;;3.63;1.80;;;29.30;32.50;;;;;;5010868;28;20458;-84
2022/09/02 12:02:42;;;;;;;1.23;1.10;;;29.50;32.00;;;;;;5009312;28;20497;-82
2022/09/02 12:05:30;;;;;;;1.40;1.30;;;30.20;31.50;;;;;;5007603;28;20490;-83
2022/09/02 12:08:33;;;;;;;1.40;1.30;;;30.30;31.90;;;;;;5013934;28;20482;-83
2022/09/02 12:11:05;;;;;;;2.00;1.60;;;30.20;31.30;;;;;;5011395;28;20485;-83
2022/09/02 12:13:47;;;;;;;1.23;1.13;;;29.70;31.20;;;;;;5010411;28;20489;-84
2022/09/02 12:16:19;;;;;;;3.47;1.77;;;30.90;30.60;;;;;;5026362;28;20517;-82
2022/09/02 12:18:52;;;;;;;1.70;1.60;;;31.10;30.00;;;;;;5012943;28;20467;-82
2022/09/02 12:21:27;;;;;;;1.53;1.43;;;31.30;29.70;;;;;;5014470;28;20723;-83
2022/09/02 12:23:54;;;;;;;1.33;1.23;;;31.20;30.00;;;;;;5013642;28;20480;-82
2022/09/02 12:26:34;;;;;;;2.10;1.50;;;30.80;30.20;;;;;;5015046;28;20489;-82
2022/09/02 12:29:18;;;;;;;1.40;1.30;;;30.60;30.00;;;;;;5028431;28;20481;-81
2022/09/02 12:31:47;;;;;;;1.30;1.20;;;30.60;30.50;;;;;;5015719;28;20456;-82
2022/09/02 12:34:20;;;;;;;1.13;1.10;;;30.80;30.30;;;;;;5018647;28;20446;-82
2022/09/02 12:37:07;;;;;;;3.00;1.40;;;30.70;30.30;;;;;;5025760;28;20429;-83
2022/09/02 12:39:34;;;;;;;1.60;1.40;;;30.60;30.50;;;;;;5025506;28;20453;-80
2022/09/02 12:42:11;;;;;;;1.40;1.30;;;30.50;30.80;;;;;;5029325;28;20454;-82
2022/09/02 12:44:45;;;;;;;1.70;1.60;;;30.80;30.80;;;;;;5028200;28;20442;-82
2022/09/02 12:47:24;;;;;;;1.37;1.27;;;30.40;30.80;;;;;;5028371;28;20450;-80
2022/09/02 12:50:31;;;;;;;1.90;1.80;;;30.70;30.60;;;;;;5031512;28;20581;-81
2022/09/02 12:53:24;;;;;;;1.73;1.63;;;30.90;30.20;;;;;;5029880;28;20434;-83
2022/09/02 12:56:11;;;;;;;2.20;1.20;;;30.30;31.10;;;;;;5026046;28;20541;-82
2022/09/02 12:58:46;;;;;;;2.73;1.87;;;30.50;30.60;;;;;;5016626;28;20470;-81
2022/09/02 13:01:28;;;;;;;1.40;1.30;;;30.40;31.50;;;;;;5031933;28;20485;-82
2022/09/02 13:04:22;;;;;;;2.10;1.80;;;30.30;31.00;;;;;;5020478;28;20444;-83
2022/09/02 13:07:07;;;;;;;1.80;1.67;;;30.00;31.40;;;;;;5014212;28;20829;-84
2022/09/02 13:10:20;;;;;;;1.57;1.47;;;29.90;31.40;;;;;;5017986;28;20553;-84
2022/09/02 13:13:21;;;;;;;2.87;1.53;;;30.10;31.60;;;;;;5017614;28;20478;-83
2022/09/02 13:16:00;;;;;;;1.57;1.47;;;30.40;31.20;;;;;;5016338;28;20497;-84
2022/09/02 13:18:49;;;;;;;1.50;1.40;;;30.10;31.40;;;;;;5016715;28;21035;-83